sensor_id;sensor_type;location;lat;lon;timestamp;temperature;humidity
3007;DHT22;1513;47.650;10.720;2022-12-18T00:01:21;-6.60;99.90
3007;DHT22;1513;47.650;10.720;2022-12-18T00:03:47;-6.50;99.90
3007;DHT22;1513;47.650;10.720;2022-12-18T00:06:14;-6.50;99.90
3007;DHT22;1513;47.650;10.720;2022-12-18T00:08:41;-6.50;99.90
3007;DHT22;1513;47.650;10.720;2022-12-18T00:11:11;-6.60;99.90
3007;DHT22;1513;47.650;10.720;2022-12-18T00:13:38;-6.60;99.90
3007;DHT22;1513;47.650;10.720;2022-12-18T00:16:06;-6.40;99.90
3007;DHT22;1513;47.650;10.720;2022-12-18T00:18:34;-6.50;99.90
3007;DHT22;1513;47.650;10.720;2022-12-18T00:21:03;-6.60;99.90
3007;DHT22;1513;47.650;10.720;2022-12-18T00:23:30;-6.70;99.90
3007;DHT22;1513;47.650;10.720;2022-12-18T00:26:01;-6.60;99.90
3007;DHT22;1513;47.650;10.720;2022-12-18T00:28:30;-6.50;99.90
3007;DHT22;1513;47.650;10.720;2022-12-18T00:31:16;-6.60;99.90
3007;DHT22;1513;47.650;10.720;2022-12-18T00:33:44;-6.70;99.90
3007;DHT22;1513;47.650;10.720;2022-12-18T00:36:18;-6.70;99.90
3007;DHT22;1513;47.650;10.720;2022-12-18T00:38:46;-6.60;99.90
3007;DHT22;1513;47.650;10.720;2022-12-18T00:41:14;-6.50;99.90
3007;DHT22;1513;47.650;10.720;2022-12-18T00:44:01;-6.70;99.90
3007;DHT22;1513;47.650;10.720;2022-12-18T00:46:27;-6.90;99.90
3007;DHT22;1513;47.650;10.720;2022-12-18T00:48:53;-6.70;99.90
3007;DHT22;1513;47.650;10.720;2022-12-18T00:51:18;-6.70;99.90
3007;DHT22;1513;47.650;10.720;2022-12-18T00:53:44;-6.50;99.90
3007;DHT22;1513;47.650;10.720;2022-12-18T00:56:11;-6.60;99.90
3007;DHT22;1513;47.650;10.720;2022-12-18T00:58:37;-6.70;99.90
3007;DHT22;1513;47.650;10.720;2022-12-18T01:01:04;-6.70;99.90
3007;DHT22;1513;47.650;10.720;2022-12-18T01:03:34;-6.60;99.90
3007;DHT22;1513;47.650;10.720;2022-12-18T01:06:08;-6.70;99.90
3007;DHT22;1513;47.650;10.720;2022-12-18T01:08:35;-6.60;99.90
3007;DHT22;1513;47.650;10.720;2022-12-18T01:11:11;-6.60;99.90
3007;DHT22;1513;47.650;10.720;2022-12-18T01:13:39;-6.70;99.90
3007;DHT22;1513;47.650;10.720;2022-12-18T01:16:06;-6.70;99.90
3007;DHT22;1513;47.650;10.720;2022-12-18T01:18:34;-6.80;99.90
3007;DHT22;1513;47.650;10.720;2022-12-18T01:21:05;-6.80;99.90
3007;DHT22;1513;47.650;10.720;2022-12-18T01:23:32;-6.70;99.90
3007;DHT22;1513;47.650;10.720;2022-12-18T01:26:11;-6.70;99.90
3007;DHT22;1513;47.650;10.720;2022-12-18T01:28:41;-6.80;99.90
3007;DHT22;1513;47.650;10.720;2022-12-18T01:31:11;-6.80;99.90
3007;DHT22;1513;47.650;10.720;2022-12-18T01:33:38;-6.90;99.90
3007;DHT22;1513;47.650;10.720;2022-12-18T01:36:05;-7.00;99.90
3007;DHT22;1513;47.650;10.720;2022-12-18T01:38:32;-7.10;99.90
3007;DHT22;1513;47.650;10.720;2022-12-18T01:40:59;-7.10;99.90
3007;DHT22;1513;47.650;10.720;2022-12-18T01:46:14;-7.10;99.90
3007;DHT22;1513;47.650;10.720;2022-12-18T01:48:40;-7.10;99.90
3007;DHT22;1513;47.650;10.720;2022-12-18T01:51:09;-7.20;99.90
3007;DHT22;1513;47.650;10.720;2022-12-18T01:53:37;-7.10;99.90
3007;DHT22;1513;47.650;10.720;2022-12-18T01:56:04;-7.10;99.90
3007;DHT22;1513;47.650;10.720;2022-12-18T01:58:54;-7.20;99.90
3007;DHT22;1513;47.650;10.720;2022-12-18T02:01:23;-7.20;99.90
3007;DHT22;1513;47.650;10.720;2022-12-18T02:03:50;-7.20;99.90
3007;DHT22;1513;47.650;10.720;2022-12-18T02:06:34;-7.20;99.90
3007;DHT22;1513;47.650;10.720;2022-12-18T02:09:15;-7.10;99.90
3007;DHT22;1513;47.650;10.720;2022-12-18T02:12:05;-7.20;99.90
3007;DHT22;1513;47.650;10.720;2022-12-18T02:15:05;-7.10;99.90
3007;DHT22;1513;47.650;10.720;2022-12-18T02:20:43;-7.20;99.90
3007;DHT22;1513;47.650;10.720;2022-12-18T02:26:07;-7.10;99.90
3007;DHT22;1513;47.650;10.720;2022-12-18T02:31:27;-7.00;99.90
3007;DHT22;1513;47.650;10.720;2022-12-18T02:34:00;-7.10;99.90
3007;DHT22;1513;47.650;10.720;2022-12-18T02:36:33;-6.90;99.90
3007;DHT22;1513;47.650;10.720;2022-12-18T02:39:02;-6.90;99.90
3007;DHT22;1513;47.650;10.720;2022-12-18T02:41:31;-7.00;99.90
3007;DHT22;1513;47.650;10.720;2022-12-18T02:43:59;-7.10;99.90
3007;DHT22;1513;47.650;10.720;2022-12-18T02:46:33;-7.20;99.90
3007;DHT22;1513;47.650;10.720;2022-12-18T02:49:35;-7.10;99.90
3007;DHT22;1513;47.650;10.720;2022-12-18T02:58:41;-7.20;99.90
3007;DHT22;1513;47.650;10.720;2022-12-18T03:01:55;-7.10;99.90
3007;DHT22;1513;47.650;10.720;2022-12-18T03:04:33;-7.20;99.90
3007;DHT22;1513;47.650;10.720;2022-12-18T03:07:11;-7.40;99.90
3007;DHT22;1513;47.650;10.720;2022-12-18T03:09:46;-7.30;99.90
3007;DHT22;1513;47.650;10.720;2022-12-18T03:12:28;-7.20;99.90
3007;DHT22;1513;47.650;10.720;2022-12-18T03:15:19;-7.40;99.90
3007;DHT22;1513;47.650;10.720;2022-12-18T03:18:12;-7.60;99.90
3007;DHT22;1513;47.650;10.720;2022-12-18T03:20:43;-7.60;99.90
3007;DHT22;1513;47.650;10.720;2022-12-18T03:23:18;-7.70;99.90
3007;DHT22;1513;47.650;10.720;2022-12-18T03:25:50;-7.70;99.90
3007;DHT22;1513;47.650;10.720;2022-12-18T03:28:22;-7.70;99.90
3007;DHT22;1513;47.650;10.720;2022-12-18T03:30:56;-7.80;99.90
3007;DHT22;1513;47.650;10.720;2022-12-18T03:33:29;-8.00;99.90
3007;DHT22;1513;47.650;10.720;2022-12-18T03:36:00;-7.90;99.90
3007;DHT22;1513;47.650;10.720;2022-12-18T03:38:27;-8.10;99.90
3007;DHT22;1513;47.650;10.720;2022-12-18T03:44:26;-8.20;99.90
3007;DHT22;1513;47.650;10.720;2022-12-18T03:47:07;-8.20;99.90
3007;DHT22;1513;47.650;10.720;2022-12-18T03:50:03;-8.20;99.90
3007;DHT22;1513;47.650;10.720;2022-12-18T03:52:45;-8.00;99.90
3007;DHT22;1513;47.650;10.720;2022-12-18T03:55:15;-7.80;99.90
3007;DHT22;1513;47.650;10.720;2022-12-18T03:57:48;-7.90;99.90
3007;DHT22;1513;47.650;10.720;2022-12-18T04:00:17;-7.80;99.90
3007;DHT22;1513;47.650;10.720;2022-12-18T04:03:02;-7.80;99.90
3007;DHT22;1513;47.650;10.720;2022-12-18T04:05:36;-7.90;99.90
3007;DHT22;1513;47.650;10.720;2022-12-18T04:08:04;-8.00;99.90
3007;DHT22;1513;47.650;10.720;2022-12-18T04:10:37;-8.00;99.90
3007;DHT22;1513;47.650;10.720;2022-12-18T04:13:03;-7.90;99.90
3007;DHT22;1513;47.650;10.720;2022-12-18T04:15:29;-8.00;99.90
3007;DHT22;1513;47.650;10.720;2022-12-18T04:17:57;-8.00;99.90
3007;DHT22;1513;47.650;10.720;2022-12-18T04:20:25;-7.90;99.90
3007;DHT22;1513;47.650;10.720;2022-12-18T04:22:52;-7.80;99.90
3007;DHT22;1513;47.650;10.720;2022-12-18T04:25:19;-7.70;99.90
3007;DHT22;1513;47.650;10.720;2022-12-18T04:28:03;-7.70;99.90
3007;DHT22;1513;47.650;10.720;2022-12-18T04:30:30;-7.70;99.90
3007;DHT22;1513;47.650;10.720;2022-12-18T04:32:55;-7.60;99.90
3007;DHT22;1513;47.650;10.720;2022-12-18T04:35:21;-7.50;99.90
3007;DHT22;1513;47.650;10.720;2022-12-18T04:37:47;-7.60;99.90
3007;DHT22;1513;47.650;10.720;2022-12-18T04:40:14;-7.80;99.90
3007;DHT22;1513;47.650;10.720;2022-12-18T04:42:43;-7.80;99.90
3007;DHT22;1513;47.650;10.720;2022-12-18T04:45:09;-8.00;99.90
3007;DHT22;1513;47.650;10.720;2022-12-18T04:47:35;-7.80;99.90
3007;DHT22;1513;47.650;10.720;2022-12-18T04:50:02;-7.70;99.90
3007;DHT22;1513;47.650;10.720;2022-12-18T04:52:31;-7.70;99.90
3007;DHT22;1513;47.650;10.720;2022-12-18T04:54:57;-7.80;99.90
3007;DHT22;1513;47.650;10.720;2022-12-18T04:57:23;-8.00;99.90
3007;DHT22;1513;47.650;10.720;2022-12-18T04:59:49;-8.00;99.90
3007;DHT22;1513;47.650;10.720;2022-12-18T05:02:15;-8.00;99.90
3007;DHT22;1513;47.650;10.720;2022-12-18T05:04:41;-8.10;99.90
3007;DHT22;1513;47.650;10.720;2022-12-18T05:07:07;-8.00;99.90
3007;DHT22;1513;47.650;10.720;2022-12-18T05:09:32;-8.00;99.90
3007;DHT22;1513;47.650;10.720;2022-12-18T05:11:58;-7.90;99.90
3007;DHT22;1513;47.650;10.720;2022-12-18T05:14:24;-7.80;99.90
3007;DHT22;1513;47.650;10.720;2022-12-18T05:16:50;-7.90;99.90
3007;DHT22;1513;47.650;10.720;2022-12-18T05:19:16;-7.80;99.90
3007;DHT22;1513;47.650;10.720;2022-12-18T05:21:41;-7.80;99.90
3007;DHT22;1513;47.650;10.720;2022-12-18T05:24:07;-7.90;99.90
3007;DHT22;1513;47.650;10.720;2022-12-18T05:26:33;-7.90;99.90
3007;DHT22;1513;47.650;10.720;2022-12-18T05:28:59;-7.80;99.90
3007;DHT22;1513;47.650;10.720;2022-12-18T05:31:25;-7.70;99.90
3007;DHT22;1513;47.650;10.720;2022-12-18T05:33:50;-7.70;99.90
3007;DHT22;1513;47.650;10.720;2022-12-18T05:36:16;-7.60;99.90
3007;DHT22;1513;47.650;10.720;2022-12-18T05:38:42;-7.50;99.90
3007;DHT22;1513;47.650;10.720;2022-12-18T05:41:09;-7.50;99.90
3007;DHT22;1513;47.650;10.720;2022-12-18T05:43:36;-7.50;99.90
3007;DHT22;1513;47.650;10.720;2022-12-18T05:46:04;-7.40;99.90
3007;DHT22;1513;47.650;10.720;2022-12-18T05:48:32;-7.60;99.90
3007;DHT22;1513;47.650;10.720;2022-12-18T05:51:04;-7.50;99.90
3007;DHT22;1513;47.650;10.720;2022-12-18T05:53:31;-7.50;99.90
3007;DHT22;1513;47.650;10.720;2022-12-18T05:56:01;-7.50;99.90
3007;DHT22;1513;47.650;10.720;2022-12-18T05:58:29;-7.40;99.90
3007;DHT22;1513;47.650;10.720;2022-12-18T06:00:55;-7.40;99.90
3007;DHT22;1513;47.650;10.720;2022-12-18T06:03:21;-7.40;99.90
3007;DHT22;1513;47.650;10.720;2022-12-18T06:05:47;-7.60;99.90
3007;DHT22;1513;47.650;10.720;2022-12-18T06:08:13;-7.40;99.90
3007;DHT22;1513;47.650;10.720;2022-12-18T06:10:40;-7.40;99.90
3007;DHT22;1513;47.650;10.720;2022-12-18T06:13:06;-7.50;99.90
3007;DHT22;1513;47.650;10.720;2022-12-18T06:15:32;-7.60;99.90
3007;DHT22;1513;47.650;10.720;2022-12-18T06:18:00;-7.50;99.90
3007;DHT22;1513;47.650;10.720;2022-12-18T06:20:26;-7.50;99.90
3007;DHT22;1513;47.650;10.720;2022-12-18T06:22:52;-7.60;99.90
3007;DHT22;1513;47.650;10.720;2022-12-18T06:25:18;-7.60;99.90
3007;DHT22;1513;47.650;10.720;2022-12-18T06:27:43;-7.70;99.90
3007;DHT22;1513;47.650;10.720;2022-12-18T06:30:10;-7.70;99.90
3007;DHT22;1513;47.650;10.720;2022-12-18T06:32:36;-7.70;99.90
3007;DHT22;1513;47.650;10.720;2022-12-18T06:35:02;-7.70;99.90
3007;DHT22;1513;47.650;10.720;2022-12-18T06:37:31;-7.80;99.90
3007;DHT22;1513;47.650;10.720;2022-12-18T06:39:56;-7.80;99.90
3007;DHT22;1513;47.650;10.720;2022-12-18T06:42:23;-7.80;99.90
3007;DHT22;1513;47.650;10.720;2022-12-18T06:44:49;-7.80;99.90
3007;DHT22;1513;47.650;10.720;2022-12-18T06:47:15;-7.80;99.90
3007;DHT22;1513;47.650;10.720;2022-12-18T06:49:41;-7.80;99.90
3007;DHT22;1513;47.650;10.720;2022-12-18T06:52:07;-7.80;99.90
3007;DHT22;1513;47.650;10.720;2022-12-18T06:54:33;-8.00;99.90
3007;DHT22;1513;47.650;10.720;2022-12-18T06:56:58;-8.00;99.90
3007;DHT22;1513;47.650;10.720;2022-12-18T06:59:24;-8.00;99.90
3007;DHT22;1513;47.650;10.720;2022-12-18T07:01:50;-8.10;99.90
3007;DHT22;1513;47.650;10.720;2022-12-18T07:04:17;-8.00;99.90
3007;DHT22;1513;47.650;10.720;2022-12-18T07:06:43;-8.10;99.90
3007;DHT22;1513;47.650;10.720;2022-12-18T07:09:08;-8.10;99.90
3007;DHT22;1513;47.650;10.720;2022-12-18T07:11:34;-8.10;99.90
3007;DHT22;1513;47.650;10.720;2022-12-18T07:14:00;-8.10;99.90
3007;DHT22;1513;47.650;10.720;2022-12-18T07:16:26;-8.20;99.90
3007;DHT22;1513;47.650;10.720;2022-12-18T07:18:55;-8.00;99.90
3007;DHT22;1513;47.650;10.720;2022-12-18T07:21:22;-8.00;99.90
3007;DHT22;1513;47.650;10.720;2022-12-18T07:23:49;-8.00;99.90
3007;DHT22;1513;47.650;10.720;2022-12-18T07:26:17;-7.90;99.90
3007;DHT22;1513;47.650;10.720;2022-12-18T07:28:44;-7.80;99.90
3007;DHT22;1513;47.650;10.720;2022-12-18T07:31:12;-7.90;99.90
3007;DHT22;1513;47.650;10.720;2022-12-18T07:33:42;-7.80;99.90
3007;DHT22;1513;47.650;10.720;2022-12-18T07:36:09;-7.80;99.90
3007;DHT22;1513;47.650;10.720;2022-12-18T07:38:36;-7.70;99.90
3007;DHT22;1513;47.650;10.720;2022-12-18T07:41:08;-7.50;99.90
3007;DHT22;1513;47.650;10.720;2022-12-18T07:43:35;-7.80;99.90
3007;DHT22;1513;47.650;10.720;2022-12-18T07:46:02;-7.60;99.90
3007;DHT22;1513;47.650;10.720;2022-12-18T07:48:28;-7.60;99.90
3007;DHT22;1513;47.650;10.720;2022-12-18T07:51:02;-7.60;99.90
3007;DHT22;1513;47.650;10.720;2022-12-18T07:53:30;-7.40;99.90
3007;DHT22;1513;47.650;10.720;2022-12-18T07:56:00;-7.60;99.90
3007;DHT22;1513;47.650;10.720;2022-12-18T07:58:29;-7.60;99.90
3007;DHT22;1513;47.650;10.720;2022-12-18T08:01:06;-7.30;99.90
3007;DHT22;1513;47.650;10.720;2022-12-18T08:03:33;-7.30;99.90
3007;DHT22;1513;47.650;10.720;2022-12-18T08:06:01;-7.70;99.90
3007;DHT22;1513;47.650;10.720;2022-12-18T08:08:28;-7.70;99.90
3007;DHT22;1513;47.650;10.720;2022-12-18T08:10:54;-7.70;99.90
3007;DHT22;1513;47.650;10.720;2022-12-18T08:13:20;-7.60;99.90
3007;DHT22;1513;47.650;10.720;2022-12-18T08:15:54;-7.30;99.90
3007;DHT22;1513;47.650;10.720;2022-12-18T08:18:21;-7.30;99.90
3007;DHT22;1513;47.650;10.720;2022-12-18T08:20:47;-7.00;99.90
3007;DHT22;1513;47.650;10.720;2022-12-18T08:23:12;-7.10;99.90
3007;DHT22;1513;47.650;10.720;2022-12-18T08:25:38;-6.90;99.90
3007;DHT22;1513;47.650;10.720;2022-12-18T08:28:04;-6.90;99.90
3007;DHT22;1513;47.650;10.720;2022-12-18T08:30:30;-6.80;99.90
3007;DHT22;1513;47.650;10.720;2022-12-18T08:32:55;-6.70;99.90
3007;DHT22;1513;47.650;10.720;2022-12-18T08:35:21;-7.00;99.90
3007;DHT22;1513;47.650;10.720;2022-12-18T08:37:47;-6.90;99.90
3007;DHT22;1513;47.650;10.720;2022-12-18T08:40:13;-6.80;99.90
3007;DHT22;1513;47.650;10.720;2022-12-18T08:42:39;-6.60;99.90
3007;DHT22;1513;47.650;10.720;2022-12-18T08:45:24;-6.70;99.90
3007;DHT22;1513;47.650;10.720;2022-12-18T08:47:50;-6.50;99.90
3007;DHT22;1513;47.650;10.720;2022-12-18T08:50:16;-6.50;99.90
3007;DHT22;1513;47.650;10.720;2022-12-18T08:52:41;-7.00;99.90
3007;DHT22;1513;47.650;10.720;2022-12-18T08:55:08;-7.50;99.90
3007;DHT22;1513;47.650;10.720;2022-12-18T08:57:35;-7.30;99.90
3007;DHT22;1513;47.650;10.720;2022-12-18T09:00:00;-7.40;99.90
3007;DHT22;1513;47.650;10.720;2022-12-18T09:02:26;-7.20;99.90
3007;DHT22;1513;47.650;10.720;2022-12-18T09:04:52;-7.20;99.90
3007;DHT22;1513;47.650;10.720;2022-12-18T09:07:18;-6.80;99.90
3007;DHT22;1513;47.650;10.720;2022-12-18T09:09:44;-7.00;99.90
3007;DHT22;1513;47.650;10.720;2022-12-18T09:12:10;-6.80;99.90
3007;DHT22;1513;47.650;10.720;2022-12-18T09:14:35;-6.80;99.90
3007;DHT22;1513;47.650;10.720;2022-12-18T09:17:01;-7.10;99.90
3007;DHT22;1513;47.650;10.720;2022-12-18T09:19:27;-6.60;99.90
3007;DHT22;1513;47.650;10.720;2022-12-18T09:21:53;-6.40;99.90
3007;DHT22;1513;47.650;10.720;2022-12-18T09:24:22;-6.40;99.90
3007;DHT22;1513;47.650;10.720;2022-12-18T09:26:48;-6.60;99.90
3007;DHT22;1513;47.650;10.720;2022-12-18T09:29:14;-6.40;99.90
3007;DHT22;1513;47.650;10.720;2022-12-18T09:31:41;-6.90;99.90
3007;DHT22;1513;47.650;10.720;2022-12-18T09:34:07;-6.90;99.90
3007;DHT22;1513;47.650;10.720;2022-12-18T09:36:33;-6.50;99.90
3007;DHT22;1513;47.650;10.720;2022-12-18T09:38:58;-6.70;99.90
3007;DHT22;1513;47.650;10.720;2022-12-18T09:41:37;-6.80;99.90
3007;DHT22;1513;47.650;10.720;2022-12-18T09:44:27;-6.70;99.90
3007;DHT22;1513;47.650;10.720;2022-12-18T09:50:02;-6.30;99.90
3007;DHT22;1513;47.650;10.720;2022-12-18T09:52:51;-5.90;99.90
3007;DHT22;1513;47.650;10.720;2022-12-18T09:55:24;-5.60;99.90
3007;DHT22;1513;47.650;10.720;2022-12-18T09:57:57;-6.10;99.90
3007;DHT22;1513;47.650;10.720;2022-12-18T10:00:28;-6.00;99.90
3007;DHT22;1513;47.650;10.720;2022-12-18T10:03:02;-6.20;99.90
3007;DHT22;1513;47.650;10.720;2022-12-18T10:11:03;-6.50;99.90
3007;DHT22;1513;47.650;10.720;2022-12-18T10:14:09;-6.50;99.90
3007;DHT22;1513;47.650;10.720;2022-12-18T10:17:05;-5.90;99.90
3007;DHT22;1513;47.650;10.720;2022-12-18T10:19:59;-5.40;99.90
3007;DHT22;1513;47.650;10.720;2022-12-18T10:28:23;-5.80;99.90
3007;DHT22;1513;47.650;10.720;2022-12-18T10:30:50;-5.90;99.90
3007;DHT22;1513;47.650;10.720;2022-12-18T10:33:18;-5.50;99.90
3007;DHT22;1513;47.650;10.720;2022-12-18T10:35:48;-5.30;99.90
3007;DHT22;1513;47.650;10.720;2022-12-18T10:43:37;-5.50;99.90
3007;DHT22;1513;47.650;10.720;2022-12-18T10:51:05;-5.40;99.90
3007;DHT22;1513;47.650;10.720;2022-12-18T10:53:33;-5.50;99.90
3007;DHT22;1513;47.650;10.720;2022-12-18T10:56:03;-5.40;99.90
3007;DHT22;1513;47.650;10.720;2022-12-18T10:58:33;-5.00;99.90
3007;DHT22;1513;47.650;10.720;2022-12-18T11:06:12;-5.60;99.90
3007;DHT22;1513;47.650;10.720;2022-12-18T11:08:41;-5.60;99.90
3007;DHT22;1513;47.650;10.720;2022-12-18T11:11:20;-5.40;99.90
3007;DHT22;1513;47.650;10.720;2022-12-18T11:14:05;-5.10;99.90
3007;DHT22;1513;47.650;10.720;2022-12-18T11:16:52;-5.30;99.90
3007;DHT22;1513;47.650;10.720;2022-12-18T11:19:34;-5.40;99.90
3007;DHT22;1513;47.650;10.720;2022-12-18T11:22:17;-4.90;99.90
3007;DHT22;1513;47.650;10.720;2022-12-18T11:24:56;-5.20;99.90
3007;DHT22;1513;47.650;10.720;2022-12-18T11:27:24;-5.30;99.90
3007;DHT22;1513;47.650;10.720;2022-12-18T11:29:51;-5.10;99.90
3007;DHT22;1513;47.650;10.720;2022-12-18T11:32:42;-5.10;99.90
3007;DHT22;1513;47.650;10.720;2022-12-18T11:38:23;-4.60;99.90
3007;DHT22;1513;47.650;10.720;2022-12-18T11:43:45;-4.80;99.90
3007;DHT22;1513;47.650;10.720;2022-12-18T11:46:24;-4.90;99.90
3007;DHT22;1513;47.650;10.720;2022-12-18T11:49:23;-4.80;99.90
3007;DHT22;1513;47.650;10.720;2022-12-18T11:54:25;-4.50;99.90
3007;DHT22;1513;47.650;10.720;2022-12-18T11:56:56;-4.20;99.90
3007;DHT22;1513;47.650;10.720;2022-12-18T12:06:11;-4.00;99.90
3007;DHT22;1513;47.650;10.720;2022-12-18T12:09:05;-4.10;99.90
3007;DHT22;1513;47.650;10.720;2022-12-18T12:17:44;-3.70;99.90
3007;DHT22;1513;47.650;10.720;2022-12-18T12:20:24;-4.10;99.90
3007;DHT22;1513;47.650;10.720;2022-12-18T12:23:13;-4.10;99.90
3007;DHT22;1513;47.650;10.720;2022-12-18T12:38:35;-3.90;99.90
3007;DHT22;1513;47.650;10.720;2022-12-18T12:41:14;-4.10;99.90
3007;DHT22;1513;47.650;10.720;2022-12-18T12:44:21;-4.20;99.90
3007;DHT22;1513;47.650;10.720;2022-12-18T12:46:52;-4.30;99.90
3007;DHT22;1513;47.650;10.720;2022-12-18T12:49:29;-4.40;99.90
3007;DHT22;1513;47.650;10.720;2022-12-18T12:52:03;-4.60;99.90
3007;DHT22;1513;47.650;10.720;2022-12-18T12:54:32;-4.60;99.90
3007;DHT22;1513;47.650;10.720;2022-12-18T12:57:15;-4.50;99.90
3007;DHT22;1513;47.650;10.720;2022-12-18T13:05:17;-4.80;99.90
3007;DHT22;1513;47.650;10.720;2022-12-18T13:08:09;-5.20;99.90
3007;DHT22;1513;47.650;10.720;2022-12-18T13:10:41;-5.30;99.90
3007;DHT22;1513;47.650;10.720;2022-12-18T13:13:15;-5.40;99.90
3007;DHT22;1513;47.650;10.720;2022-12-18T13:15:46;-5.40;99.90
3007;DHT22;1513;47.650;10.720;2022-12-18T13:18:32;-5.40;99.90
3007;DHT22;1513;47.650;10.720;2022-12-18T13:34:26;-5.40;99.90
3007;DHT22;1513;47.650;10.720;2022-12-18T13:36:57;-5.50;99.90
3007;DHT22;1513;47.650;10.720;2022-12-18T13:43:23;-5.60;99.90
3007;DHT22;1513;47.650;10.720;2022-12-18T13:46:21;-5.50;99.90
3007;DHT22;1513;47.650;10.720;2022-12-18T13:49:03;-5.40;99.90
3007;DHT22;1513;47.650;10.720;2022-12-18T13:51:33;-5.40;99.90
3007;DHT22;1513;47.650;10.720;2022-12-18T13:54:17;-5.50;99.90
3007;DHT22;1513;47.650;10.720;2022-12-18T13:56:47;-5.50;99.90
3007;DHT22;1513;47.650;10.720;2022-12-18T13:59:25;-5.50;99.90
3007;DHT22;1513;47.650;10.720;2022-12-18T14:01:57;-5.70;99.90
3007;DHT22;1513;47.650;10.720;2022-12-18T14:04:34;-5.80;99.90
3007;DHT22;1513;47.650;10.720;2022-12-18T14:07:16;-5.70;99.90
3007;DHT22;1513;47.650;10.720;2022-12-18T14:09:57;-5.90;99.90
3007;DHT22;1513;47.650;10.720;2022-12-18T14:17:57;-5.90;99.90
3007;DHT22;1513;47.650;10.720;2022-12-18T14:20:25;-6.00;99.90
3007;DHT22;1513;47.650;10.720;2022-12-18T14:22:51;-6.00;99.90
3007;DHT22;1513;47.650;10.720;2022-12-18T14:25:21;-5.90;99.90
3007;DHT22;1513;47.650;10.720;2022-12-18T14:28:07;-6.00;99.90
3007;DHT22;1513;47.650;10.720;2022-12-18T14:30:41;-6.10;99.90
3007;DHT22;1513;47.650;10.720;2022-12-18T14:35:42;-6.10;99.90
3007;DHT22;1513;47.650;10.720;2022-12-18T14:38:30;-6.20;99.90
3007;DHT22;1513;47.650;10.720;2022-12-18T14:43:45;-6.20;99.90
3007;DHT22;1513;47.650;10.720;2022-12-18T14:46:36;-6.30;99.90
3007;DHT22;1513;47.650;10.720;2022-12-18T14:51:56;-6.10;99.90
3007;DHT22;1513;47.650;10.720;2022-12-18T14:54:24;-6.20;99.90
3007;DHT22;1513;47.650;10.720;2022-12-18T14:57:06;-6.30;99.90
3007;DHT22;1513;47.650;10.720;2022-12-18T14:59:46;-6.40;99.90
3007;DHT22;1513;47.650;10.720;2022-12-18T15:02:26;-6.40;99.90
3007;DHT22;1513;47.650;10.720;2022-12-18T15:05:46;-6.40;99.90
3007;DHT22;1513;47.650;10.720;2022-12-18T15:07:55;-6.40;99.90
3007;DHT22;1513;47.650;10.720;2022-12-18T15:10:24;-6.70;99.90
3007;DHT22;1513;47.650;10.720;2022-12-18T15:13:08;-6.70;99.90
3007;DHT22;1513;47.650;10.720;2022-12-18T15:23:18;-7.00;99.90
3007;DHT22;1513;47.650;10.720;2022-12-18T15:25:45;-7.00;99.90
3007;DHT22;1513;47.650;10.720;2022-12-18T15:28:28;-7.10;99.90
3007;DHT22;1513;47.650;10.720;2022-12-18T15:31:30;-7.30;99.90
3007;DHT22;1513;47.650;10.720;2022-12-18T15:34:22;-7.50;99.90
3007;DHT22;1513;47.650;10.720;2022-12-18T15:36:50;-7.60;99.90
3007;DHT22;1513;47.650;10.720;2022-12-18T15:39:16;-7.70;99.90
3007;DHT22;1513;47.650;10.720;2022-12-18T15:41:42;-7.80;99.90
3007;DHT22;1513;47.650;10.720;2022-12-18T15:44:28;-7.90;99.90
3007;DHT22;1513;47.650;10.720;2022-12-18T15:46:57;-8.00;99.90
3007;DHT22;1513;47.650;10.720;2022-12-18T15:49:23;-8.10;99.90
3007;DHT22;1513;47.650;10.720;2022-12-18T15:51:52;-8.00;99.90
3007;DHT22;1513;47.650;10.720;2022-12-18T15:54:20;-7.90;99.90
3007;DHT22;1513;47.650;10.720;2022-12-18T15:57:07;-7.90;99.90
3007;DHT22;1513;47.650;10.720;2022-12-18T15:59:54;-8.00;99.90
3007;DHT22;1513;47.650;10.720;2022-12-18T16:02:23;-8.00;99.90
3007;DHT22;1513;47.650;10.720;2022-12-18T16:04:52;-8.00;99.90
3007;DHT22;1513;47.650;10.720;2022-12-18T16:07:19;-7.90;99.90
3007;DHT22;1513;47.650;10.720;2022-12-18T16:09:49;-8.00;99.90
3007;DHT22;1513;47.650;10.720;2022-12-18T16:12:17;-8.00;99.90
3007;DHT22;1513;47.650;10.720;2022-12-18T16:14:45;-8.00;99.90
3007;DHT22;1513;47.650;10.720;2022-12-18T16:17:12;-8.10;99.90
3007;DHT22;1513;47.650;10.720;2022-12-18T16:19:38;-8.00;99.90
3007;DHT22;1513;47.650;10.720;2022-12-18T16:22:05;-8.10;99.90
3007;DHT22;1513;47.650;10.720;2022-12-18T16:24:33;-8.10;99.90
3007;DHT22;1513;47.650;10.720;2022-12-18T16:27:01;-8.20;99.90
3007;DHT22;1513;47.650;10.720;2022-12-18T16:29:28;-8.30;99.90
3007;DHT22;1513;47.650;10.720;2022-12-18T16:31:58;-8.30;99.90
3007;DHT22;1513;47.650;10.720;2022-12-18T16:34:29;-8.20;99.90
3007;DHT22;1513;47.650;10.720;2022-12-18T16:36:59;-8.20;99.90
3007;DHT22;1513;47.650;10.720;2022-12-18T16:39:26;-8.40;99.90
3007;DHT22;1513;47.650;10.720;2022-12-18T16:41:53;-8.80;99.90
3007;DHT22;1513;47.650;10.720;2022-12-18T16:44:19;-8.80;99.90
3007;DHT22;1513;47.650;10.720;2022-12-18T16:46:46;-8.90;99.90
3007;DHT22;1513;47.650;10.720;2022-12-18T16:49:14;-8.90;99.90
3007;DHT22;1513;47.650;10.720;2022-12-18T16:51:41;-8.90;99.90
3007;DHT22;1513;47.650;10.720;2022-12-18T16:54:07;-8.90;99.90
3007;DHT22;1513;47.650;10.720;2022-12-18T16:56:33;-9.10;99.90
3007;DHT22;1513;47.650;10.720;2022-12-18T16:59:00;-9.20;99.90
3007;DHT22;1513;47.650;10.720;2022-12-18T17:01:29;-9.30;99.90
3007;DHT22;1513;47.650;10.720;2022-12-18T17:04:04;-9.30;99.90
3007;DHT22;1513;47.650;10.720;2022-12-18T17:06:37;-9.20;99.90
3007;DHT22;1513;47.650;10.720;2022-12-18T17:09:07;-9.20;99.90
3007;DHT22;1513;47.650;10.720;2022-12-18T17:11:35;-9.20;99.90
3007;DHT22;1513;47.650;10.720;2022-12-18T17:14:14;-9.20;99.90
3007;DHT22;1513;47.650;10.720;2022-12-18T17:16:41;-9.20;99.90
3007;DHT22;1513;47.650;10.720;2022-12-18T17:19:08;-9.30;99.90
3007;DHT22;1513;47.650;10.720;2022-12-18T17:21:34;-9.30;99.90
3007;DHT22;1513;47.650;10.720;2022-12-18T17:24:01;-9.40;99.90
3007;DHT22;1513;47.650;10.720;2022-12-18T17:26:28;-9.40;99.90
3007;DHT22;1513;47.650;10.720;2022-12-18T17:28:58;-9.50;99.90
3007;DHT22;1513;47.650;10.720;2022-12-18T17:31:26;-9.70;99.90
3007;DHT22;1513;47.650;10.720;2022-12-18T17:33:53;-9.60;99.90
3007;DHT22;1513;47.650;10.720;2022-12-18T17:36:21;-9.70;99.90
3007;DHT22;1513;47.650;10.720;2022-12-18T17:38:52;-9.80;99.90
3007;DHT22;1513;47.650;10.720;2022-12-18T17:41:19;-9.80;99.90
3007;DHT22;1513;47.650;10.720;2022-12-18T17:43:53;-9.90;99.90
3007;DHT22;1513;47.650;10.720;2022-12-18T17:46:20;-9.90;99.90
3007;DHT22;1513;47.650;10.720;2022-12-18T17:48:47;-9.90;99.90
3007;DHT22;1513;47.650;10.720;2022-12-18T17:51:13;-10.00;99.90
3007;DHT22;1513;47.650;10.720;2022-12-18T17:53:40;-9.90;99.90
3007;DHT22;1513;47.650;10.720;2022-12-18T17:56:08;-9.80;99.90
3007;DHT22;1513;47.650;10.720;2022-12-18T17:58:37;-9.80;99.90
3007;DHT22;1513;47.650;10.720;2022-12-18T18:01:04;-9.90;99.90
3007;DHT22;1513;47.650;10.720;2022-12-18T18:03:34;-9.80;99.90
3007;DHT22;1513;47.650;10.720;2022-12-18T18:06:02;-9.80;99.90
3007;DHT22;1513;47.650;10.720;2022-12-18T18:08:29;-9.70;99.90
3007;DHT22;1513;47.650;10.720;2022-12-18T18:10:56;-9.60;99.90
3007;DHT22;1513;47.650;10.720;2022-12-18T18:13:45;-9.50;99.90
3007;DHT22;1513;47.650;10.720;2022-12-18T18:16:35;-9.30;99.90
3007;DHT22;1513;47.650;10.720;2022-12-18T18:19:14;-9.30;99.90
3007;DHT22;1513;47.650;10.720;2022-12-18T18:21:43;-9.30;99.90